Terminal Aerodrome Forecast
Issued by NWS

Home | Current Version | Previous Version | Graphics & Text | Print | Product List | Glossary Off
Versions: 1 2 3 4 5 6 7 8 9 10 11 12 13 14 15 16 17 18 19 20 21 22 23 24 25 26 27 28 29

643
FTUS43 KDDC 201120
TAFHYS
TAF
KHYS 201120Z 2012/2112 18015KT P6SM BKN200
     FM201500 18020G30KT P6SM BKN200
     FM201900 18027G37KT P6SM BKN200
     FM210300 17017KT P6SM BKN040 WS020/19050KT=

USA.gov is the U.S. government's official web portal to all federal, state and local government web resources and services.